createdAt,value
2023-01-29T00:01:19.973Z,90.07
2023-01-29T00:06:23.146Z,89.99
2023-01-29T00:11:25.482Z,89.95
2023-01-29T00:16:27.352Z,89.91
2023-01-29T00:21:30.880Z,90.16
2023-01-29T00:26:32.716Z,89.96
2023-01-29T00:31:34.730Z,90.09
2023-01-29T00:36:36.317Z,90.09
2023-01-29T00:41:57.144Z,90.26
2023-01-29T00:46:58.932Z,90.17
2023-01-29T00:52:19.167Z,90.25
2023-01-29T00:57:21.002Z,90.22
2023-01-29T01:02:41.817Z,89.89
2023-01-29T01:07:48.398Z,89.75
2023-01-29T01:13:00.566Z,90.01
2023-01-29T01:18:03.586Z,89.94
2023-01-29T01:23:05.230Z,89.54
2023-01-29T01:28:07.255Z,89.72
2023-01-29T01:33:08.954Z,89.42
2023-01-29T01:38:11.202Z,89.65
2023-01-29T01:43:12.782Z,89.67
2023-01-29T01:48:23.245Z,89.53
2023-01-29T01:53:39.368Z,89.39
2023-01-29T01:58:45.362Z,89.39
2023-01-29T02:04:16.467Z,89.27
2023-01-29T02:09:34.353Z,89.21
2023-01-29T02:14:40.678Z,89.39
2023-01-29T02:19:54.516Z,89.27
2023-01-29T02:25:09.812Z,89.28
2023-01-29T02:30:14.293Z,89.49
2023-01-29T02:35:26.061Z,89.43
2023-01-29T02:41:00.046Z,89.40
2023-01-29T02:46:13.956Z,89.42
2023-01-29T02:51:25.043Z,89.88
2023-01-29T02:56:37.257Z,90.04
2023-01-29T03:01:44.837Z,89.81
2023-01-29T03:06:54.427Z,90.08
2023-01-29T03:12:19.855Z,89.82
2023-01-29T03:17:27.445Z,90.01
2023-01-29T03:22:30.710Z,90.08
2023-01-29T03:28:02.183Z,90.13
2023-01-29T03:33:11.430Z,90.38
2023-01-29T03:38:14.397Z,90.18
2023-01-29T03:43:34.199Z,90.35
2023-01-29T03:48:36.403Z,90.44
2023-01-29T03:53:47.840Z,90.62
2023-01-29T03:59:01.376Z,90.72
2023-01-29T04:04:37.822Z,90.67
2023-01-29T04:09:48.095Z,90.53
2023-01-29T04:14:53.557Z,90.48
2023-01-29T04:19:55.721Z,90.38
2023-01-29T04:25:02.491Z,90.44
2023-01-29T04:30:13.573Z,90.56
2023-01-29T04:35:16.812Z,90.24
2023-01-29T04:40:56.969Z,90.38
2023-01-29T04:46:19.052Z,90.32
2023-01-29T04:51:32.726Z,90.43
2023-01-29T04:56:44.441Z,90.44
2023-01-29T05:01:47.436Z,90.46
2023-01-29T05:06:51.041Z,90.51
2023-01-29T05:11:53.392Z,90.25
2023-01-29T05:16:57.068Z,90.26
2023-01-29T05:21:59.443Z,90.74
2023-01-29T05:27:19.700Z,90.50
2023-01-29T05:32:21.203Z,90.57
2023-01-29T05:37:22.969Z,91.08
2023-01-29T05:42:24.543Z,91.12
2023-01-29T05:47:26.045Z,91.40
2023-01-29T05:52:27.574Z,91.82
2023-01-29T05:57:29.113Z,92.16
2023-01-29T06:02:31.407Z,92.61
2023-01-29T06:07:32.983Z,92.61
2023-01-29T06:12:34.471Z,92.88
2023-01-29T06:17:36.008Z,93.24
2023-01-29T06:22:37.581Z,93.50
2023-01-29T06:27:39.093Z,93.69
2023-01-29T06:32:40.659Z,93.86
2023-01-29T06:37:42.292Z,94.07
2023-01-29T06:42:46.052Z,93.79
2023-01-29T06:47:47.721Z,94.24
2023-01-29T06:52:49.242Z,94.39
2023-01-29T06:57:50.988Z,94.52
2023-01-29T07:03:05.869Z,94.59
2023-01-29T07:08:08.763Z,94.94
2023-01-29T07:13:10.357Z,95.27
2023-01-29T07:18:12.580Z,95.31
2023-01-29T07:23:15.305Z,95.17
2023-01-29T07:28:23.281Z,95.19
2023-01-29T07:33:25.657Z,95.28
2023-01-29T07:38:27.332Z,95.53
2023-01-29T07:43:30.206Z,95.49
2023-01-29T07:48:31.892Z,95.53
2023-01-29T07:53:33.511Z,95.48
2023-01-29T07:58:36.747Z,95.00
2023-01-29T08:03:38.634Z,95.52
2023-01-29T08:08:40.122Z,95.22
2023-01-29T08:13:41.692Z,95.08
2023-01-29T08:18:47.798Z,94.58
2023-01-29T08:23:49.415Z,94.62
2023-01-29T08:28:50.896Z,94.44
2023-01-29T08:33:54.546Z,93.97
2023-01-29T08:38:56.097Z,93.65
2023-01-29T08:43:57.963Z,93.31
2023-01-29T08:48:59.507Z,92.79
2023-01-29T08:54:01.025Z,92.44
2023-01-29T08:59:02.514Z,91.94
2023-01-29T09:04:04.015Z,91.90
2023-01-29T09:09:05.538Z,91.43
2023-01-29T09:14:07.339Z,91.27
2023-01-29T09:19:08.870Z,91.25
2023-01-29T09:24:10.794Z,91.29
2023-01-29T09:29:12.369Z,91.15
2023-01-29T09:34:14.140Z,90.73
2023-01-29T09:39:15.754Z,90.77
2023-01-29T09:44:28.497Z,90.37
2023-01-29T09:49:37.720Z,90.24
2023-01-29T09:55:22.524Z,90.07
2023-01-29T10:00:32.930Z,89.73
2023-01-29T10:05:55.959Z,89.72
2023-01-29T10:11:16.132Z,89.30
2023-01-29T10:16:26.991Z,89.14
2023-01-29T10:21:35.400Z,88.98
2023-01-29T10:26:38.025Z,88.43
2023-01-29T10:31:40.326Z,88.24
2023-01-29T10:36:45.599Z,87.98
2023-01-29T10:41:54.077Z,88.07
2023-01-29T10:47:17.061Z,87.61
2023-01-29T10:52:50.768Z,87.66
2023-01-29T10:58:22.687Z,87.46
2023-01-29T11:03:29.949Z,87.27
2023-01-29T11:08:42.380Z,87.21
2023-01-29T11:13:48.535Z,87.22
2023-01-29T11:18:55.161Z,86.93
2023-01-29T11:24:16.990Z,86.61
2023-01-29T11:29:33.635Z,86.45
2023-01-29T11:34:35.201Z,86.19
2023-01-29T11:39:44.404Z,86.63
2023-01-29T11:44:46.451Z,86.65
2023-01-29T11:49:53.877Z,86.57
2023-01-29T11:55:03.802Z,86.48
2023-01-29T12:00:18.169Z,86.56
2023-01-29T12:05:23.742Z,86.60
2023-01-29T12:10:37.219Z,86.42
2023-01-29T12:15:40.952Z,86.28
2023-01-29T12:20:56.038Z,86.48
2023-01-29T12:26:09.624Z,86.42
2023-01-29T12:31:20.250Z,86.47
2023-01-29T12:36:28.009Z,86.33
2023-01-29T12:41:47.842Z,86.25
2023-01-29T12:46:54.870Z,86.31
2023-01-29T12:52:23.204Z,86.14
2023-01-29T12:57:34.743Z,86.01
2023-01-29T13:02:55.486Z,86.36
2023-01-29T13:08:04.237Z,86.29
2023-01-29T13:13:15.876Z,86.59
2023-01-29T13:18:32.236Z,87.01
2023-01-29T13:23:46.895Z,87.51
2023-01-29T13:28:49.706Z,88.23
2023-01-29T13:34:25.524Z,88.70
2023-01-29T13:39:32.809Z,89.16
2023-01-29T13:44:39.790Z,89.27
2023-01-29T13:49:53.550Z,89.39
2023-01-29T13:55:00.248Z,89.54
2023-01-29T14:00:01.813Z,89.76
2023-01-29T14:05:31.494Z,89.78
2023-01-29T14:10:35.214Z,89.55
2023-01-29T14:15:38.181Z,89.43
2023-01-29T14:21:01.580Z,89.47
2023-01-29T14:26:06.266Z,89.36
2023-01-29T14:31:08.356Z,89.06
2023-01-29T14:36:14.359Z,89.15
2023-01-29T14:41:22.079Z,89.28
2023-01-29T14:46:35.664Z,89.19
2023-01-29T14:51:41.670Z,89.15
2023-01-29T14:56:49.754Z,89.50
2023-01-29T15:01:58.026Z,89.46
2023-01-29T15:07:01.433Z,90.06
2023-01-29T15:12:14.282Z,90.21
2023-01-29T15:17:25.063Z,90.46
2023-01-29T15:22:28.955Z,90.32
2023-01-29T15:27:30.934Z,90.41
2023-01-29T15:32:35.902Z,90.70
2023-01-29T15:37:37.856Z,90.74
2023-01-29T15:42:48.469Z,90.82
2023-01-29T15:47:50.890Z,91.12
2023-01-29T15:52:54.451Z,91.19
2023-01-29T15:57:57.429Z,91.50
2023-01-29T16:03:01.406Z,92.03
2023-01-29T16:08:04.040Z,92.25
2023-01-29T16:13:05.655Z,92.35
2023-01-29T16:18:35.949Z,92.67
2023-01-29T16:23:48.596Z,92.67
2023-01-29T16:28:50.992Z,93.17
2023-01-29T16:33:54.593Z,93.35
2023-01-29T16:39:02.215Z,93.65
2023-01-29T16:44:37.965Z,94.14
2023-01-29T16:49:39.402Z,94.19
2023-01-29T16:54:44.102Z,94.33
2023-01-29T16:59:46.832Z,94.57
2023-01-29T17:04:48.803Z,94.80
2023-01-29T17:09:54.191Z,95.12
2023-01-29T17:15:30.688Z,95.13
2023-01-29T17:20:32.440Z,95.28
2023-01-29T17:25:33.967Z,95.40
2023-01-29T17:30:37.242Z,95.48
2023-01-29T17:35:39.301Z,95.28
2023-01-29T17:40:53.464Z,95.46
2023-01-29T17:45:55.006Z,95.20
2023-01-29T17:51:00.406Z,95.30
2023-01-29T17:56:02.467Z,95.26
2023-01-29T18:01:04.134Z,95.28
2023-01-29T18:06:10.129Z,95.28
2023-01-29T18:11:12.984Z,95.28
2023-01-29T18:16:15.742Z,95.19
2023-01-29T18:21:17.868Z,94.65
2023-01-29T18:26:19.503Z,94.85
2023-01-29T18:31:24.081Z,94.82
2023-01-29T18:36:25.610Z,94.76
2023-01-29T18:41:27.185Z,94.66
2023-01-29T18:46:28.823Z,94.37
2023-01-29T18:51:30.683Z,94.52
2023-01-29T18:56:32.394Z,94.06
2023-01-29T19:01:33.941Z,94.49
2023-01-29T19:06:37.147Z,94.22
2023-01-29T19:11:39.558Z,94.21
2023-01-29T19:16:42.583Z,93.92
2023-01-29T19:21:44.293Z,93.77
2023-01-29T19:26:45.899Z,93.77
2023-01-29T19:31:47.844Z,93.46
2023-01-29T19:36:49.424Z,93.54
2023-01-29T19:41:50.962Z,93.28
2023-01-29T19:46:52.713Z,93.13
2023-01-29T19:51:56.311Z,93.27
2023-01-29T19:56:58.185Z,93.16
2023-01-29T20:02:00.043Z,93.06
2023-01-29T20:07:01.810Z,92.77
2023-01-29T20:12:04.333Z,92.86
2023-01-29T20:17:07.809Z,92.53
2023-01-29T20:22:09.780Z,92.39
2023-01-29T20:27:12.269Z,92.39
2023-01-29T20:32:14.530Z,92.34
2023-01-29T20:37:16.050Z,92.24
2023-01-29T20:42:18.061Z,92.09
2023-01-29T20:47:19.719Z,92.37
2023-01-29T20:52:21.630Z,92.16
2023-01-29T20:57:24.160Z,92.21
2023-01-29T21:02:28.938Z,91.84
2023-01-29T21:07:30.438Z,91.92
2023-01-29T21:12:31.953Z,92.09
2023-01-29T21:17:34.131Z,92.20
2023-01-29T21:22:37.093Z,92.21
2023-01-29T21:27:38.736Z,92.77
2023-01-29T21:32:40.227Z,92.26
2023-01-29T21:37:42.029Z,92.41
2023-01-29T21:43:02.027Z,92.43
2023-01-29T21:48:05.348Z,92.72
2023-01-29T21:53:07.627Z,92.91
2023-01-29T21:58:11.488Z,93.17
2023-01-29T22:03:14.900Z,93.72
2023-01-29T22:08:18.767Z,94.04
2023-01-29T22:13:21.874Z,94.09
2023-01-29T22:18:24.034Z,94.23
2023-01-29T22:23:25.526Z,94.43
2023-01-29T22:28:27.016Z,94.81
2023-01-29T22:33:28.633Z,94.82
2023-01-29T22:38:30.972Z,94.81
2023-01-29T22:43:33.499Z,95.05
2023-01-29T22:48:35.557Z,95.18
2023-01-29T22:53:51.494Z,95.13
2023-01-29T22:58:55.624Z,95.07
2023-01-29T23:03:57.461Z,95.14
2023-01-29T23:08:58.958Z,94.78
2023-01-29T23:14:00.459Z,95.37
2023-01-29T23:19:01.942Z,94.98
2023-01-29T23:24:03.912Z,94.85
2023-01-29T23:29:05.765Z,94.78
2023-01-29T23:34:07.322Z,94.51
2023-01-29T23:39:09.048Z,94.44
2023-01-29T23:44:10.600Z,94.30
2023-01-29T23:49:12.131Z,94.38
2023-01-29T23:54:14.164Z,94.13
2023-01-29T23:59:16.268Z,94.18
